Time;durP1;ratioP1;P1;durP2;ratioP2;P2;SDS_P1;SDS_P2;PMS_P1;PMS_P2;Temp;Humidity;BMP_temperature;BMP_pressure;BME280_temperature;BME280_humidity;BME280_pressure;Samples;Min_cycle;Max_cycle;Signal;HPM_P1;HPM_P2
2020/12/11 00:01:11;;;;;;;7.57;3.50;;;2.90;82.60;;;;;;5084778;28;20043;-83
2020/12/11 00:03:39;;;;;;;7.63;2.97;;;2.90;82.40;;;;;;5098357;28;20057;-83
2020/12/11 00:06:06;;;;;;;8.63;3.13;;;2.90;82.10;;;;;;5086537;28;20053;-83
2020/12/11 00:08:32;;;;;;;5.88;2.92;;;2.80;82.20;;;;;;5080341;28;20045;-84
2020/12/11 00:10:59;;;;;;;8.73;3.20;;;2.80;82.10;;;;;;5079663;28;20044;-84
2020/12/11 00:13:29;;;;;;;7.45;3.38;;;2.80;82.30;;;;;;5085181;28;20131;-83
2020/12/11 00:16:00;;;;;;;8.75;3.45;;;2.80;82.10;;;;;;5115387;28;20127;-84
2020/12/11 00:18:31;;;;;;;8.20;3.90;;;2.70;82.40;;;;;;5080313;28;20041;-83
2020/12/11 00:20:59;;;;;;;6.40;2.55;;;2.70;82.70;;;;;;5080548;28;20054;-84
2020/12/11 00:23:27;;;;;;;5.88;2.83;;;2.70;82.70;;;;;;5085154;28;20086;-84
2020/12/11 00:25:58;;;;;;;5.63;2.75;;;2.60;82.60;;;;;;5078826;28;20284;-83
2020/12/11 00:28:26;;;;;;;;;;;2.60;82.90;;;;;;5064344;28;20069;-85
2020/12/11 00:30:53;;;;;;;8.13;3.08;;;2.60;83.50;;;;;;5082542;28;19951;-83
2020/12/11 00:33:24;;;;;;;7.65;2.85;;;2.60;83.50;;;;;;5080230;28;20041;-83
2020/12/11 00:35:51;;;;;;;7.93;3.20;;;2.60;83.40;;;;;;5081480;28;20078;-82
2020/12/11 00:38:22;;;;;;;8.82;3.58;;;2.50;83.70;;;;;;5083193;28;20044;-83
2020/12/11 00:40:49;;;;;;;5.60;2.90;;;2.60;83.60;;;;;;5080303;28;20052;-82
2020/12/11 00:43:27;;;;;;;8.30;3.13;;;2.60;83.50;;;;;;5078310;28;20147;-83
2020/12/11 00:45:54;;;;;;;7.95;3.63;;;2.60;83.60;;;;;;5063665;28;20338;-83
2020/12/11 00:48:22;;;;;;;8.07;4.03;;;2.60;83.50;;;;;;5078858;28;20076;-84
2020/12/11 00:50:49;;;;;;;8.18;3.53;;;2.60;83.50;;;;;;5083382;28;20052;-82
2020/12/11 00:53:16;;;;;;;8.10;3.88;;;2.50;83.70;;;;;;5074871;28;20057;-85
2020/12/11 00:55:46;;;;;;;7.82;3.80;;;2.50;84.00;;;;;;5081900;28;20072;-83
2020/12/11 00:58:19;;;;;;;7.10;2.92;;;2.50;84.00;;;;;;5096912;28;20259;-83
2020/12/11 01:00:48;;;;;;;6.18;2.67;;;2.40;84.10;;;;;;5082717;28;20073;-82
2020/12/11 01:03:15;;;;;;;6.28;3.08;;;2.40;84.30;;;;;;5086790;28;20083;-83
2020/12/11 01:05:42;;;;;;;5.75;2.45;;;2.30;84.60;;;;;;5079422;28;20048;-82
2020/12/11 01:08:09;;;;;;;6.30;2.35;;;2.30;84.80;;;;;;5060560;28;20085;-83
2020/12/11 01:10:39;;;;;;;6.38;2.67;;;2.30;84.80;;;;;;5081387;28;20135;-82
2020/12/11 01:13:13;;;;;;;9.93;3.80;;;2.30;84.90;;;;;;5080247;28;20152;-83
2020/12/11 01:15:40;;;;;;;9.82;4.35;;;2.30;84.90;;;;;;5111737;27;20060;-81
2020/12/11 01:18:08;;;;;;;7.43;3.03;;;2.30;84.70;;;;;;5067967;28;20048;-82
2020/12/11 01:20:35;;;;;;;5.55;2.80;;;2.30;84.80;;;;;;5081235;28;20168;-83
2020/12/11 01:23:04;;;;;;;7.28;3.28;;;2.20;84.90;;;;;;5082406;28;20228;-86
2020/12/11 01:25:34;;;;;;;8.85;3.47;;;2.30;84.90;;;;;;5083105;28;20083;-83
2020/12/11 01:28:02;;;;;;;7.10;3.53;;;2.30;84.80;;;;;;5065880;28;20058;-81
2020/12/11 01:30:30;;;;;;;6.97;2.83;;;2.30;84.90;;;;;;5083432;28;20111;-82
2020/12/11 01:32:57;;;;;;;7.03;3.35;;;2.30;84.60;;;;;;5065322;28;20044;-81
2020/12/11 01:35:24;;;;;;;7.25;3.35;;;2.30;84.50;;;;;;5096360;28;20059;-82
2020/12/11 01:37:51;;;;;;;7.25;3.25;;;2.20;84.50;;;;;;5080182;28;20048;-82
2020/12/11 01:40:18;;;;;;;7.32;2.70;;;2.30;84.60;;;;;;5065823;28;20060;-86
2020/12/11 01:42:45;;;;;;;9.05;3.10;;;2.30;84.60;;;;;;5079941;28;20052;-85
2020/12/11 01:45:16;;;;;;;8.15;4.10;;;2.30;84.60;;;;;;5076701;28;20080;-83
2020/12/11 01:47:46;;;;;;;7.70;3.70;;;2.30;84.50;;;;;;5080647;28;20056;-84
2020/12/11 01:50:20;;;;;;;9.18;3.75;;;2.20;84.60;;;;;;5075676;28;20045;-84
2020/12/11 01:53:01;;;;;;;8.77;4.05;;;2.30;84.60;;;;;;5109778;28;20048;-83
2020/12/11 01:55:28;;;;;;;8.80;3.45;;;2.20;84.60;;;;;;5081170;28;20061;-83
2020/12/11 01:58:00;;;;;;;6.05;2.83;;;2.20;84.70;;;;;;5080720;28;20040;-86
2020/12/11 02:00:29;;;;;;;8.32;3.00;;;2.30;84.70;;;;;;5094672;28;20052;-81
2020/12/11 02:03:03;;;;;;;8.65;4.30;;;2.30;84.70;;;;;;5062453;28;20060;-84
2020/12/11 02:05:30;;;;;;;8.10;3.58;;;2.30;84.50;;;;;;5114773;28;20044;-81
2020/12/11 02:07:58;;;;;;;7.90;3.50;;;2.30;84.40;;;;;;5078205;28;20041;-85
2020/12/11 02:10:25;;;;;;;11.75;4.00;;;2.30;84.20;;;;;;5069964;28;20347;-82
2020/12/11 02:12:52;;;;;;;7.82;3.08;;;2.30;84.20;;;;;;5081845;28;20393;-84
2020/12/11 02:15:19;;;;;;;7.97;3.10;;;2.40;84.30;;;;;;5081792;28;20340;-82
2020/12/11 02:17:47;;;;;;;6.95;3.60;;;2.40;84.40;;;;;;5081971;28;20048;-83
2020/12/11 02:20:19;;;;;;;10.70;4.25;;;2.40;84.40;;;;;;5093251;28;20044;-84
2020/12/11 02:22:47;;;;;;;10.55;3.92;;;2.40;84.20;;;;;;5062945;28;20059;-83
2020/12/11 02:25:14;;;;;;;7.25;3.50;;;2.50;83.70;;;;;;5063159;28;20270;-85
2020/12/11 02:27:41;;;;;;;8.18;3.85;;;2.40;83.90;;;;;;5081078;28;20071;-83
2020/12/11 02:30:09;;;;;;;9.25;3.97;;;2.40;83.80;;;;;;5080073;28;20087;-84
2020/12/11 02:32:36;;;;;;;11.25;4.30;;;2.40;84.20;;;;;;5079967;28;20060;-84
2020/12/11 02:35:03;;;;;;;8.05;4.40;;;2.50;83.80;;;;;;5079235;28;20359;-81
2020/12/11 02:37:31;;;;;;;12.70;4.40;;;2.40;83.90;;;;;;5075259;28;21900;-83
2020/12/11 02:39:59;;;;;;;11.20;5.03;;;2.40;84.10;;;;;;5080659;28;20048;-83
2020/12/11 02:42:26;;;;;;;11.85;4.38;;;2.50;83.90;;;;;;5113707;28;20057;-82
2020/12/11 02:44:53;;;;;;;8.48;3.80;;;2.40;84.00;;;;;;5063361;28;20036;-83
2020/12/11 02:47:20;;;;;;;6.53;3.80;;;2.50;84.00;;;;;;5077431;28;20055;-82
2020/12/11 02:49:48;;;;;;;9.77;4.53;;;2.40;84.00;;;;;;5079602;28;20056;-83
2020/12/11 02:52:18;;;;;;;9.15;4.22;;;2.40;84.20;;;;;;5061210;28;20052;-84
2020/12/11 02:54:47;;;;;;;9.18;3.97;;;2.50;83.90;;;;;;5068264;28;20053;-84
2020/12/11 03:01:20;;;;;;;8.40;4.13;;;2.50;83.90;;;;;;5060010;28;20044;-83
2020/12/11 03:04:45;;;;;;;15.48;4.68;;;2.60;84.00;;;;;;5069018;28;20051;-83
2020/12/11 03:07:19;;;;;;;8.07;3.70;;;2.50;84.10;;;;;;5069600;28;20120;-82
2020/12/11 03:09:52;;;;;;;7.45;3.38;;;2.60;84.40;;;;;;5078675;28;20048;-82
2020/12/11 03:12:27;;;;;;;8.25;4.43;;;2.70;83.70;;;;;;5078452;28;20055;-81
2020/12/11 03:14:54;;;;;;;9.40;4.88;;;2.80;83.30;;;;;;5075824;28;20037;-82
2020/12/11 03:17:22;;;;;;;12.02;5.10;;;2.80;83.30;;;;;;5082142;28;20132;-83
2020/12/11 03:19:55;;;;;;;8.75;4.90;;;2.80;83.20;;;;;;5080754;28;20046;-84
2020/12/11 03:22:38;;;;;;;;;;;;;;;;;;;;;
2020/12/11 03:25:19;;;;;;;9.20;4.20;;;2.70;83.80;;;;;;5072258;28;20122;-84
2020/12/11 03:27:47;;;;;;;11.97;4.90;;;2.60;84.00;;;;;;5078919;28;20368;-85
2020/12/11 03:30:24;;;;;;;8.57;3.72;;;2.70;83.70;;;;;;5062711;28;20295;-83
2020/12/11 03:32:54;;;;;;;11.82;5.75;;;2.70;84.10;;;;;;5081608;28;20089;-82
2020/12/11 03:35:21;;;;;;;11.38;4.60;;;2.70;84.20;;;;;;5084062;28;20036;-82
2020/12/11 03:37:56;;;;;;;8.90;4.45;;;2.70;84.00;;;;;;5084924;28;20331;-82
2020/12/11 03:40:23;;;;;;;10.32;4.22;;;2.70;84.10;;;;;;5064513;28;20127;-84
2020/12/11 03:42:57;;;;;;;14.20;5.05;;;2.70;83.90;;;;;;5079695;28;20048;-85
2020/12/11 03:45:24;;;;;;;11.02;4.38;;;2.80;83.60;;;;;;5081584;28;20048;-84
2020/12/11 03:47:52;;;;;;;9.82;4.22;;;2.80;83.10;;;;;;5084092;28;20067;-84
2020/12/11 03:50:20;;;;;;;14.52;4.65;;;2.80;83.30;;;;;;5078212;28;20047;-84
2020/12/11 03:52:54;;;;;;;11.43;4.93;;;2.80;83.10;;;;;;5080105;28;20052;-83
2020/12/11 03:55:32;;;;;;;8.98;4.78;;;2.70;83.30;;;;;;5078322;28;20054;-85
2020/12/11 03:58:04;;;;;;;10.32;5.60;;;2.70;83.50;;;;;;5092582;28;20282;-84
2020/12/11 04:00:38;;;;;;;11.10;5.07;;;2.70;83.50;;;;;;5078906;28;20075;-83
2020/12/11 04:03:07;;;;;;;10.75;4.93;;;2.70;83.40;;;;;;5072620;28;20057;-83
2020/12/11 04:05:34;;;;;;;9.50;4.35;;;2.60;83.40;;;;;;5081542;28;20169;-82
2020/12/11 04:08:06;;;;;;;9.40;3.83;;;2.60;83.40;;;;;;5080866;28;20109;-83
2020/12/11 04:10:40;;;;;;;11.32;4.18;;;2.60;83.60;;;;;;5080782;28;20119;-85
2020/12/11 04:13:09;;;;;;;12.45;5.60;;;2.60;83.80;;;;;;5082527;28;20070;-86
2020/12/11 04:15:36;;;;;;;10.80;4.85;;;2.50;84.20;;;;;;5081194;28;20170;-82
2020/12/11 04:18:06;;;;;;;11.48;5.10;;;2.40;84.40;;;;;;5080375;28;20060;-86
2020/12/11 04:20:36;;;;;;;10.73;5.20;;;2.50;84.50;;;;;;5098516;28;20111;-87
2020/12/11 04:23:03;;;;;;;12.35;6.13;;;2.40;84.90;;;;;;5078258;28;20060;-84
2020/12/11 04:25:34;;;;;;;14.00;5.32;;;2.40;84.80;;;;;;5082354;28;20247;-87
2020/12/11 04:28:01;;;;;;;8.90;4.07;;;2.40;84.80;;;;;;5066061;28;20060;-82
2020/12/11 04:30:29;;;;;;;9.98;5.03;;;2.40;84.80;;;;;;5064233;28;20119;-83
2020/12/11 04:32:56;;;;;;;8.98;4.88;;;2.40;84.90;;;;;;5065175;28;20052;-83
2020/12/11 04:35:23;;;;;;;10.75;4.57;;;2.30;85.20;;;;;;5085485;28;20062;-83
2020/12/11 04:41:05;;;;;;;19.10;6.25;;;2.20;85.80;;;;;;5000626;28;20061;-84
2020/12/11 04:43:49;;;;;;;12.15;5.20;;;2.30;85.80;;;;;;5049743;28;20347;-82
2020/12/11 04:46:17;;;;;;;11.98;4.53;;;2.40;85.10;;;;;;5080193;28;20336;-84
2020/12/11 04:48:44;;;;;;;8.80;4.45;;;2.40;85.10;;;;;;5082948;28;20414;-85
2020/12/11 04:51:14;;;;;;;9.45;4.40;;;2.40;84.90;;;;;;5115227;27;20044;-83
2020/12/11 04:53:41;;;;;;;8.95;4.35;;;2.40;84.90;;;;;;5079088;28;20052;-82
2020/12/11 04:56:08;;;;;;;11.27;4.70;;;2.40;84.90;;;;;;5062604;28;20059;-86
2020/12/11 04:58:41;;;;;;;12.77;5.35;;;2.30;84.90;;;;;;5058996;28;20048;-84
2020/12/11 05:01:21;;;;;;;8.57;4.38;;;2.30;85.40;;;;;;5093845;28;20119;-87
2020/12/11 05:03:52;;;;;;;22.88;6.88;;;2.20;85.70;;;;;;5115187;28;20052;-83
2020/12/11 05:06:20;;;;;;;12.48;4.82;;;2.20;86.00;;;;;;5088816;28;20048;-83
2020/12/11 05:08:47;;;;;;;11.23;5.65;;;2.10;86.20;;;;;;5083101;28;20056;-85
2020/12/11 05:11:26;;;;;;;10.55;6.03;;;2.20;85.90;;;;;;5077128;28;20045;-87
2020/12/11 05:13:53;;;;;;;9.95;4.57;;;2.00;86.20;;;;;;5064529;28;20055;-84
2020/12/11 05:16:21;;;;;;;9.40;4.70;;;2.00;86.60;;;;;;5079743;28;20393;-83
2020/12/11 05:19:03;;;;;;;11.32;5.25;;;2.00;86.90;;;;;;5080359;28;20048;-84
2020/12/11 05:21:31;;;;;;;11.15;5.40;;;2.20;86.50;;;;;;5079237;28;20048;-86
2020/12/11 05:24:06;;;;;;;9.32;4.80;;;2.10;86.30;;;;;;5061098;28;20076;-84
2020/12/11 05:26:36;;;;;;;12.88;5.75;;;2.10;86.40;;;;;;5081187;28;20228;-82
2020/12/11 05:29:04;;;;;;;13.27;6.50;;;2.10;86.50;;;;;;5082960;28;20048;-81
2020/12/11 05:31:31;;;;;;;16.75;6.28;;;2.10;86.50;;;;;;5081452;28;20114;-83
2020/12/11 05:34:07;;;;;;;12.35;5.18;;;2.00;86.70;;;;;;5078478;28;20291;-85
2020/12/11 05:36:46;;;;;;;15.13;6.45;;;2.10;87.10;;;;;;5079797;28;20121;-86
2020/12/11 05:39:19;;;;;;;12.63;5.22;;;2.10;86.90;;;;;;5094859;28;20072;-83
2020/12/11 05:41:46;;;;;;;11.50;4.28;;;2.10;86.70;;;;;;5081829;28;20053;-83
2020/12/11 05:44:34;;;;;;;10.52;4.43;;;2.10;86.70;;;;;;5080381;28;20044;-84
2020/12/11 05:47:18;;;;;;;8.60;4.57;;;2.00;87.00;;;;;;5078179;28;20053;-83
2020/12/11 05:49:48;;;;;;;10.82;4.60;;;1.90;87.50;;;;;;5080126;28;20052;-82
2020/12/11 05:52:22;;;;;;;14.80;5.50;;;1.80;87.70;;;;;;5059324;28;20078;-82
2020/12/11 05:54:53;;;;;;;8.93;4.53;;;1.80;88.00;;;;;;5081219;28;20298;-83
2020/12/11 05:57:23;;;;;;;13.60;5.18;;;1.90;87.50;;;;;;5045443;28;20052;-82
2020/12/11 05:59:53;;;;;;;11.27;5.03;;;1.90;87.20;;;;;;5079760;28;20555;-81
2020/12/11 06:02:19;;;;;;;11.75;4.88;;;1.90;87.00;;;;;;5079689;28;20047;-84
2020/12/11 06:04:47;;;;;;;12.75;5.05;;;1.80;87.20;;;;;;5080930;28;20060;-85
2020/12/11 06:07:16;;;;;;;10.85;5.72;;;1.70;87.60;;;;;;5080301;28;20051;-81
2020/12/11 06:09:51;;;;;;;10.95;5.88;;;1.70;87.80;;;;;;5079572;28;20059;-82
2020/12/11 06:12:28;;;;;;;13.13;6.38;;;1.70;87.90;;;;;;5082207;28;20044;-84
2020/12/11 06:15:08;;;;;;;10.57;5.18;;;1.70;88.20;;;;;;5079128;28;20044;-83
2020/12/11 06:17:39;;;;;;;7.93;4.05;;;1.70;88.40;;;;;;5098473;28;20048;-84
2020/12/11 06:20:10;;;;;;;9.27;5.10;;;1.70;88.00;;;;;;5059357;28;20060;-82
2020/12/11 06:22:45;;;;;;;10.88;4.95;;;1.90;87.50;;;;;;5078647;28;20040;-83
2020/12/11 06:25:27;;;;;;;10.95;5.25;;;2.00;87.40;;;;;;5053678;28;20053;-85
2020/12/11 06:27:54;;;;;;;8.88;3.50;;;1.90;87.50;;;;;;5080548;28;20076;-84
2020/12/11 06:30:27;;;;;;;14.48;5.85;;;2.00;88.00;;;;;;5077484;28;20052;-84
2020/12/11 06:32:57;;;;;;;11.30;5.07;;;2.10;87.50;;;;;;5045662;28;20235;-85
2020/12/11 06:35:30;;;;;;;11.43;6.13;;;2.20;87.30;;;;;;5094400;28;20082;-83
2020/12/11 06:37:57;;;;;;;9.95;5.05;;;2.10;87.40;;;;;;5075652;28;20329;-81
2020/12/11 06:40:48;;;;;;;10.15;5.28;;;2.20;87.40;;;;;;5060944;28;20044;-84
2020/12/11 06:43:36;;;;;;;10.60;5.68;;;2.30;87.00;;;;;;5077294;28;20247;-85
2020/12/11 06:46:12;;;;;;;12.02;5.45;;;2.40;86.60;;;;;;5078253;28;20307;-82
2020/12/11 06:49:10;;;;;;;12.18;6.10;;;2.40;86.20;;;;;;5073430;28;20044;-82
2020/12/11 06:52:10;;;;;;;11.85;5.28;;;2.30;86.90;;;;;;5079377;28;20090;-83
2020/12/11 06:54:53;;;;;;;15.65;6.65;;;2.20;87.20;;;;;;5075734;28;20119;-83
2020/12/11 06:57:38;;;;;;;15.43;6.47;;;2.20;87.00;;;;;;5078435;28;20067;-85
2020/12/11 07:00:41;;;;;;;12.32;7.15;;;2.30;86.70;;;;;;5075122;28;20058;-83
2020/12/11 07:03:18;;;;;;;14.00;5.57;;;2.30;86.70;;;;;;5062104;28;20052;-85
2020/12/11 07:05:45;;;;;;;15.82;6.15;;;2.30;86.70;;;;;;5080879;28;20048;-86
2020/12/11 07:08:14;;;;;;;19.90;7.30;;;2.30;86.40;;;;;;5085771;28;20060;-82
2020/12/11 07:10:42;;;;;;;18.30;7.90;;;2.30;86.60;;;;;;5082124;28;20111;-83
2020/12/11 07:13:10;;;;;;;12.57;6.15;;;2.40;86.30;;;;;;5083707;28;20044;-83
2020/12/11 07:15:37;;;;;;;17.02;7.35;;;2.30;86.60;;;;;;5084773;28;20086;-84
2020/12/11 07:18:12;;;;;;;13.88;6.40;;;2.30;86.80;;;;;;5086617;28;20040;-83
2020/12/11 07:20:44;;;;;;;13.60;6.43;;;2.40;86.60;;;;;;5096873;28;20052;-83
2020/12/11 07:23:16;;;;;;;15.98;6.22;;;2.30;86.70;;;;;;5079876;28;20048;-81
2020/12/11 07:25:43;;;;;;;14.85;5.88;;;2.30;86.90;;;;;;5086019;28;20232;-82
2020/12/11 07:28:11;;;;;;;14.38;6.95;;;2.30;86.80;;;;;;5084323;28;20305;-84
2020/12/11 07:30:38;;;;;;;18.63;6.57;;;2.40;87.00;;;;;;5082528;28;20041;-84
2020/12/11 07:33:13;;;;;;;16.23;6.40;;;2.50;86.00;;;;;;5113362;28;20379;-82
2020/12/11 07:35:45;;;;;;;20.50;8.45;;;2.50;85.60;;;;;;5068351;28;20048;-83
2020/12/11 07:38:12;;;;;;;18.95;8.43;;;2.50;85.90;;;;;;5079932;28;20390;-81
2020/12/11 07:40:40;;;;;;;14.95;8.55;;;2.50;85.60;;;;;;5078562;28;20359;-82
2020/12/11 07:43:09;;;;;;;17.83;8.32;;;2.50;85.60;;;;;;5097617;28;20167;-83
2020/12/11 07:45:40;;;;;;;16.88;7.97;;;2.60;85.50;;;;;;5083633;28;20040;-83
2020/12/11 07:48:09;;;;;;;19.38;8.65;;;2.50;85.80;;;;;;5082430;28;20053;-82
2020/12/11 07:50:35;;;;;;;22.42;8.20;;;2.60;84.90;;;;;;5078391;28;20051;-82
2020/12/11 07:53:08;;;;;;;19.38;8.10;;;2.70;84.20;;;;;;5079677;28;20370;-82
2020/12/11 07:55:35;;;;;;;16.85;7.22;;;2.80;84.40;;;;;;5084285;28;20067;-83
2020/12/11 07:58:04;;;;;;;18.30;8.50;;;2.80;83.50;;;;;;5082723;28;20040;-84
2020/12/11 08:00:36;;;;;;;19.35;8.20;;;2.80;83.60;;;;;;5082035;28;20052;-81
2020/12/11 08:03:08;;;;;;;17.45;7.75;;;2.80;83.80;;;;;;5073851;28;20079;-81
2020/12/11 08:05:37;;;;;;;16.10;7.80;;;2.80;83.90;;;;;;5053458;28;20052;-82
2020/12/11 08:08:06;;;;;;;14.55;6.45;;;2.80;83.60;;;;;;5079319;28;20057;-83
2020/12/11 08:10:36;;;;;;;21.65;7.03;;;2.90;83.20;;;;;;5064654;28;20035;-84
2020/12/11 08:13:15;;;;;;;17.88;7.65;;;3.00;83.00;;;;;;5081105;28;20070;-83
2020/12/11 08:15:44;;;;;;;21.65;8.50;;;3.00;82.60;;;;;;5081807;28;20327;-84
2020/12/11 08:18:23;;;;;;;17.13;7.10;;;3.00;82.40;;;;;;5110180;28;20129;-82
2020/12/11 08:20:56;;;;;;;24.45;8.73;;;3.10;82.10;;;;;;5080708;28;20379;-82
2020/12/11 08:23:31;;;;;;;18.02;8.50;;;3.00;82.20;;;;;;5063951;28;20041;-83
2020/12/11 08:26:09;;;;;;;30.73;11.63;;;3.10;82.20;;;;;;5074784;28;20051;-83
2020/12/11 08:28:37;;;;;;;18.35;6.85;;;3.20;82.20;;;;;;5061579;28;20083;-85
2020/12/11 08:31:24;;;;;;;17.83;7.35;;;3.20;81.90;;;;;;5080713;28;20247;-85
2020/12/11 08:34:01;;;;;;;31.55;13.18;;;3.30;81.90;;;;;;5077013;28;20052;-82
2020/12/11 08:36:39;;;;;;;25.73;11.82;;;3.40;81.10;;;;;;5080472;28;20048;-82
2020/12/11 08:39:15;;;;;;;22.92;10.25;;;3.50;81.20;;;;;;5077015;28;20102;-82
2020/12/11 08:41:52;;;;;;;26.73;14.25;;;3.60;80.60;;;;;;5066108;28;20347;-82
2020/12/11 08:44:30;;;;;;;18.90;9.07;;;3.70;81.10;;;;;;5081981;28;20044;-86
2020/12/11 08:49:47;;;;;;;17.83;8.57;;;3.80;79.30;;;;;;5078089;28;20058;-86
2020/12/11 08:52:14;;;;;;;31.23;20.08;;;4.00;79.00;;;;;;5052391;28;20059;-84
2020/12/11 08:54:43;;;;;;;18.23;8.35;;;4.30;78.30;;;;;;5082070;28;20304;-82
2020/12/11 08:57:10;;;;;;;20.30;8.55;;;4.60;76.80;;;;;;5096214;28;20351;-84
2020/12/11 08:59:42;;;;;;;19.58;8.82;;;4.90;76.60;;;;;;5080450;28;20127;-85
2020/12/11 09:02:09;;;;;;;16.45;7.88;;;4.80;75.10;;;;;;5081892;28;20052;-80
2020/12/11 09:04:35;;;;;;;16.10;7.00;;;4.70;75.70;;;;;;5081037;28;20060;-80
2020/12/11 09:07:02;;;;;;;21.75;6.90;;;4.30;76.80;;;;;;5094460;28;20145;-82
2020/12/11 09:09:30;;;;;;;12.93;6.32;;;4.40;77.00;;;;;;5077477;28;20040;-81
2020/12/11 09:11:57;;;;;;;17.08;7.45;;;4.30;76.70;;;;;;5079470;28;20058;-80
2020/12/11 09:14:25;;;;;;;20.67;7.90;;;4.30;77.10;;;;;;5075273;28;20048;-79
2020/12/11 09:16:53;;;;;;;19.23;7.97;;;4.50;76.20;;;;;;5077214;28;20060;-79
2020/12/11 09:19:20;;;;;;;21.13;9.43;;;4.80;75.90;;;;;;5079252;28;20220;-80
2020/12/11 09:21:48;;;;;;;16.67;6.95;;;4.90;75.10;;;;;;5080499;28;20060;-79
2020/12/11 09:24:15;;;;;;;19.38;8.23;;;5.20;73.90;;;;;;5088235;28;20052;-79
2020/12/11 09:26:42;;;;;;;17.10;7.10;;;6.10;71.40;;;;;;5077738;28;20083;-78
2020/12/11 09:29:13;;;;;;;18.70;8.02;;;6.80;67.70;;;;;;5057241;28;20391;-78
2020/12/11 09:31:43;;;;;;;20.55;8.23;;;7.10;67.70;;;;;;5081097;28;20119;-80
2020/12/11 09:34:12;;;;;;;19.35;8.57;;;7.10;65.10;;;;;;5065705;28;20389;-77
2020/12/11 09:36:45;;;;;;;15.88;7.25;;;7.70;66.20;;;;;;5082055;28;20308;-79
2020/12/11 09:39:12;;;;;;;17.92;7.95;;;8.20;62.70;;;;;;5076951;28;20044;-80
2020/12/11 09:41:43;;;;;;;18.65;7.82;;;7.70;62.80;;;;;;5055834;28;20049;-80
2020/12/11 09:47:12;;;;;;;22.35;9.23;;;6.10;67.20;;;;;;5080458;28;20063;-79
2020/12/11 09:49:50;;;;;;;19.00;7.28;;;6.00;69.00;;;;;;5080035;28;20083;-79
2020/12/11 09:52:28;;;;;;;22.42;7.40;;;6.00;69.10;;;;;;5076156;28;20119;-79
2020/12/11 09:54:54;;;;;;;14.52;7.82;;;6.10;68.30;;;;;;5079791;28;20052;-79
2020/12/11 09:57:22;;;;;;;16.98;8.27;;;6.00;69.40;;;;;;5076911;28;20049;-79
2020/12/11 09:59:56;;;;;;;20.70;8.13;;;6.40;68.30;;;;;;5081521;28;20096;-80
2020/12/11 10:02:34;;;;;;;21.23;8.02;;;6.30;68.40;;;;;;5074648;28;20086;-80
2020/12/11 10:05:03;;;;;;;20.92;7.38;;;6.10;68.50;;;;;;5073067;28;20048;-78
2020/12/11 10:07:30;;;;;;;17.73;7.45;;;5.70;69.10;;;;;;5077857;28;20044;-80
2020/12/11 10:09:58;;;;;;;18.13;7.90;;;5.30;70.80;;;;;;5077508;28;20055;-81
2020/12/11 10:12:27;;;;;;;13.95;6.65;;;5.30;71.10;;;;;;5079174;28;20079;-80
2020/12/11 10:14:58;;;;;;;16.73;7.32;;;5.50;70.70;;;;;;5063086;28;20095;-80
2020/12/11 10:17:25;;;;;;;14.50;6.22;;;5.60;70.90;;;;;;5078540;28;20340;-78
2020/12/11 10:19:52;;;;;;;15.27;8.32;;;5.40;70.20;;;;;;5096837;28;20052;-80
2020/12/11 10:22:20;;;;;;;16.33;7.35;;;5.20;71.80;;;;;;5077008;28;20091;-80
2020/12/11 10:24:47;;;;;;;20.13;7.78;;;5.70;70.30;;;;;;5078105;28;20079;-80
2020/12/11 10:27:14;;;;;;;16.63;8.02;;;6.20;68.40;;;;;;5081055;28;20059;-79
2020/12/11 10:29:46;;;;;;;17.60;7.80;;;6.50;67.50;;;;;;5076641;28;20052;-80
2020/12/11 10:32:13;;;;;;;17.73;7.78;;;6.90;65.40;;;;;;5078002;28;20054;-78
2020/12/11 10:34:40;;;;;;;18.08;7.50;;;7.00;64.60;;;;;;5088954;28;20179;-78
2020/12/11 10:37:08;;;;;;;17.23;8.38;;;7.60;64.20;;;;;;5096346;28;20064;-79
2020/12/11 10:39:36;;;;;;;18.80;9.43;;;7.60;63.00;;;;;;5077203;28;20071;-79
2020/12/11 10:42:04;;;;;;;17.13;8.23;;;7.30;63.40;;;;;;5079598;28;20040;-78
2020/12/11 10:44:31;;;;;;;15.32;7.55;;;7.00;63.10;;;;;;5063144;28;20056;-80
2020/12/11 10:46:58;;;;;;;17.40;8.18;;;7.00;64.00;;;;;;5066658;28;20043;-78
2020/12/11 10:49:25;;;;;;;17.77;7.60;;;7.70;63.80;;;;;;5082359;28;20047;-80
2020/12/11 10:52:45;;;;;;;18.13;7.75;;;8.70;59.60;;;;;;5073142;28;20057;-80
2020/12/11 10:55:13;;;;;;;17.40;8.20;;;8.60;58.30;;;;;;5098617;28;20052;-81
2020/12/11 10:57:39;;;;;;;19.13;8.25;;;9.00;57.00;;;;;;5084770;28;21450;-79
2020/12/11 11:00:07;;;;;;;16.17;8.38;;;9.00;56.80;;;;;;5083717;28;20055;-80
2020/12/11 11:02:34;;;;;;;19.15;9.48;;;9.00;57.50;;;;;;5047604;28;20072;-78
2020/12/11 11:05:11;;;;;;;16.75;7.80;;;10.00;54.60;;;;;;980529;28;10023473;-80
2020/12/11 11:07:39;;;;;;;18.00;8.27;;;10.90;50.80;;;;;;4729485;28;10001153;-79
2020/12/11 11:10:16;;;;;;;22.83;11.13;;;11.20;51.30;;;;;;5079457;28;20259;-78
2020/12/11 11:12:47;;;;;;;16.60;7.35;;;12.10;48.60;;;;;;5065034;28;20118;-79
2020/12/11 11:29:30;;;;;;;18.67;7.90;;;10.00;52.30;;;;;;5059288;28;20351;-81
2020/12/11 11:31:57;;;;;;;18.25;7.97;;;10.90;50.70;;;;;;5083570;28;20044;-81
2020/12/11 11:34:24;;;;;;;18.52;8.73;;;11.60;47.70;;;;;;5080837;28;20270;-81
2020/12/11 11:36:52;;;;;;;16.17;7.78;;;11.80;46.80;;;;;;5081650;28;20130;-80
2020/12/11 11:39:20;;;;;;;17.05;8.05;;;11.80;45.80;;;;;;5096364;28;20060;-79
2020/12/11 11:41:47;;;;;;;16.90;8.27;;;11.50;47.50;;;;;;5083941;28;20056;-80
2020/12/11 11:47:09;;;;;;;14.05;7.47;;;11.60;46.50;;;;;;5083672;28;20062;-78
2020/12/11 11:49:51;;;;;;;19.17;8.40;;;9.90;50.50;;;;;;5063374;28;20413;-83
2020/12/11 11:52:22;;;;;;;16.48;8.20;;;9.40;52.80;;;;;;5113893;27;20351;-79
2020/12/11 11:54:50;;;;;;;18.25;8.35;;;9.00;53.70;;;;;;5080441;28;20059;-80
2020/12/11 11:57:17;;;;;;;18.08;7.60;;;8.60;55.20;;;;;;5092528;28;20294;-79
2020/12/11 11:59:44;;;;;;;17.75;7.53;;;8.20;56.10;;;;;;5078326;28;20045;-81
2020/12/11 12:02:11;;;;;;;20.88;7.90;;;8.00;57.10;;;;;;5081868;28;20056;-79
2020/12/11 12:04:41;;;;;;;17.35;8.95;;;7.70;58.50;;;;;;5114552;28;20063;-80
2020/12/11 12:07:08;;;;;;;20.33;8.85;;;7.30;59.00;;;;;;5054132;28;20048;-80
2020/12/11 12:09:35;;;;;;;16.17;7.82;;;7.00;61.10;;;;;;5079023;28;20041;-80
2020/12/11 12:12:07;;;;;;;16.25;6.80;;;7.00;60.60;;;;;;5087185;28;20056;-81
2020/12/11 12:14:36;;;;;;;15.10;6.88;;;7.70;60.00;;;;;;5088052;28;20347;-81
2020/12/11 12:17:16;;;;;;;16.75;7.53;;;9.00;55.80;;;;;;5076512;28;20127;-82
2020/12/11 12:19:46;;;;;;;15.82;7.55;;;9.40;53.70;;;;;;5078321;28;20047;-80
2020/12/11 12:22:56;;;;;;;15.27;6.97;;;9.70;51.50;;;;;;5086746;28;20237;-81
2020/12/11 12:28:30;;;;;;;14.23;6.57;;;9.70;51.60;;;;;;5085680;28;20286;-83
2020/12/11 12:30:58;;;;;;;;;;;9.60;51.90;;;;;;5111387;28;20036;-82
2020/12/11 12:36:37;;;;;;;15.43;7.57;;;9.30;52.80;;;;;;5081416;28;20060;-80
2020/12/11 12:39:31;;;;;;;15.80;6.75;;;8.30;54.90;;;;;;5078086;28;20049;-80
2020/12/11 12:44:58;;;;;;;18.58;7.10;;;7.70;57.80;;;;;;4988025;28;20297;-81
2020/12/11 12:47:26;;;;;;;13.35;7.70;;;7.90;57.60;;;;;;5003300;28;20038;-81
2020/12/11 12:49:54;;;;;;;16.05;6.35;;;8.00;57.10;;;;;;5048451;28;20438;-80
2020/12/11 12:52:21;;;;;;;14.35;6.75;;;8.40;57.30;;;;;;5080582;28;20048;-79
2020/12/11 12:54:48;;;;;;;13.27;6.60;;;9.00;55.70;;;;;;5081741;28;20068;-80
2020/12/11 12:57:27;;;;;;;11.55;6.13;;;9.30;54.30;;;;;;5080954;28;20072;-78
2020/12/11 12:59:59;;;;;;;14.05;7.32;;;9.10;53.70;;;;;;5070405;28;20036;-80
2020/12/11 13:05:08;;;;;;;15.73;7.05;;;8.20;56.60;;;;;;5070227;28;20123;-80
2020/12/11 13:07:36;;;;;;;13.48;6.60;;;7.40;58.80;;;;;;5082137;28;20090;-79
2020/12/11 13:10:05;;;;;;;14.75;6.07;;;7.50;59.20;;;;;;5081099;28;20111;-81
2020/12/11 13:12:32;;;;;;;13.50;6.40;;;7.40;59.50;;;;;;5097958;28;20101;-79
2020/12/11 13:14:59;;;;;;;14.48;6.60;;;6.70;61.70;;;;;;5079266;28;20119;-82
2020/12/11 13:17:27;;;;;;;13.20;6.30;;;6.40;62.90;;;;;;5074747;28;20056;-80
2020/12/11 13:19:54;;;;;;;15.35;7.03;;;6.30;64.10;;;;;;5057648;28;20348;-78
2020/12/11 13:22:39;;;;;;;12.95;6.60;;;6.10;64.80;;;;;;5083303;28;20079;-80
2020/12/11 13:28:05;;;;;;;15.70;6.85;;;5.80;66.40;;;;;;5041402;28;20042;-79
2020/12/11 13:30:32;;;;;;;13.15;6.22;;;5.70;66.50;;;;;;5080859;28;20049;-79
2020/12/11 13:32:59;;;;;;;13.25;5.95;;;5.70;67.00;;;;;;5082236;28;20040;-80
2020/12/11 13:35:28;;;;;;;14.27;6.00;;;5.70;67.60;;;;;;5083121;28;20067;-81
2020/12/11 13:37:57;;;;;;;13.90;6.47;;;5.70;67.20;;;;;;5072797;28;20050;-81
2020/12/11 13:40:24;;;;;;;13.60;6.28;;;5.70;67.40;;;;;;5091621;28;20225;-79
2020/12/11 13:42:51;;;;;;;12.77;6.55;;;5.80;67.40;;;;;;5078823;28;20075;-79
2020/12/11 13:45:18;;;;;;;13.63;6.00;;;5.90;67.40;;;;;;5084126;28;20055;-79
2020/12/11 13:47:45;;;;;;;15.35;6.30;;;5.80;67.70;;;;;;5094861;28;20067;-78
2020/12/11 13:50:12;;;;;;;14.38;6.45;;;5.70;67.70;;;;;;5068699;28;20090;-80
2020/12/11 13:52:39;;;;;;;10.10;5.55;;;5.70;67.90;;;;;;5077743;28;20220;-79
2020/12/11 13:55:07;;;;;;;18.52;5.95;;;5.60;68.40;;;;;;5077536;28;20053;-79